sensor_id;sensor_type;location;lat;lon;timestamp;P1;durP1;ratioP1;P2;durP2;ratioP2
71490;SDS011;59307;50.060;9.150;2023-10-13T00:01:18;11.90;;;5.78;;
71490;SDS011;59307;50.060;9.150;2023-10-13T00:03:43;17.20;;;5.63;;
71490;SDS011;59307;50.060;9.150;2023-10-13T00:06:09;14.03;;;6.37;;
71490;SDS011;59307;50.060;9.150;2023-10-13T00:08:35;15.50;;;6.07;;
71490;SDS011;59307;50.060;9.150;2023-10-13T00:11:01;16.23;;;5.80;;
71490;SDS011;59307;50.060;9.150;2023-10-13T00:13:28;11.93;;;5.32;;
71490;SDS011;59307;50.060;9.150;2023-10-13T00:15:54;14.47;;;6.70;;
71490;SDS011;59307;50.060;9.150;2023-10-13T00:18:31;13.00;;;5.82;;
71490;SDS011;59307;50.060;9.150;2023-10-13T00:20:59;14.73;;;5.68;;
71490;SDS011;59307;50.060;9.150;2023-10-13T00:23:25;14.60;;;5.53;;
71490;SDS011;59307;50.060;9.150;2023-10-13T00:25:52;13.63;;;5.63;;
71490;SDS011;59307;50.060;9.150;2023-10-13T00:28:25;14.90;;;6.35;;
71490;SDS011;59307;50.060;9.150;2023-10-13T00:30:51;15.30;;;6.05;;
71490;SDS011;59307;50.060;9.150;2023-10-13T00:33:18;12.82;;;5.88;;
71490;SDS011;59307;50.060;9.150;2023-10-13T00:35:49;10.93;;;5.93;;
71490;SDS011;59307;50.060;9.150;2023-10-13T00:38:16;13.10;;;5.30;;
71490;SDS011;59307;50.060;9.150;2023-10-13T00:40:42;14.35;;;5.90;;
71490;SDS011;59307;50.060;9.150;2023-10-13T00:43:08;16.07;;;5.70;;
71490;SDS011;59307;50.060;9.150;2023-10-13T00:48:13;14.60;;;6.18;;
71490;SDS011;59307;50.060;9.150;2023-10-13T00:50:40;14.75;;;6.45;;
71490;SDS011;59307;50.060;9.150;2023-10-13T00:53:06;16.90;;;6.63;;
71490;SDS011;59307;50.060;9.150;2023-10-13T00:55:32;15.77;;;6.70;;
71490;SDS011;59307;50.060;9.150;2023-10-13T00:57:59;12.57;;;6.97;;
71490;SDS011;59307;50.060;9.150;2023-10-13T01:00:31;16.58;;;6.55;;
71490;SDS011;59307;50.060;9.150;2023-10-13T01:02:56;14.48;;;6.75;;
71490;SDS011;59307;50.060;9.150;2023-10-13T01:05:25;14.10;;;6.87;;
71490;SDS011;59307;50.060;9.150;2023-10-13T01:07:50;17.27;;;6.63;;
71490;SDS011;59307;50.060;9.150;2023-10-13T01:10:19;14.38;;;6.55;;
71490;SDS011;59307;50.060;9.150;2023-10-13T01:12:45;17.42;;;7.20;;
71490;SDS011;59307;50.060;9.150;2023-10-13T01:15:11;18.30;;;6.67;;
71490;SDS011;59307;50.060;9.150;2023-10-13T01:17:38;18.25;;;7.68;;
71490;SDS011;59307;50.060;9.150;2023-10-13T01:20:03;15.67;;;7.47;;
71490;SDS011;59307;50.060;9.150;2023-10-13T01:22:30;15.15;;;7.82;;
71490;SDS011;59307;50.060;9.150;2023-10-13T01:24:56;17.00;;;7.30;;
71490;SDS011;59307;50.060;9.150;2023-10-13T01:27:30;19.75;;;7.32;;
71490;SDS011;59307;50.060;9.150;2023-10-13T01:29:56;15.30;;;6.37;;
71490;SDS011;59307;50.060;9.150;2023-10-13T01:32:24;17.63;;;7.00;;
71490;SDS011;59307;50.060;9.150;2023-10-13T01:34:49;15.57;;;6.80;;
71490;SDS011;59307;50.060;9.150;2023-10-13T01:37:20;15.23;;;7.15;;
71490;SDS011;59307;50.060;9.150;2023-10-13T01:39:45;16.60;;;6.33;;
71490;SDS011;59307;50.060;9.150;2023-10-13T01:42:12;18.48;;;7.15;;
71490;SDS011;59307;50.060;9.150;2023-10-13T01:44:39;14.70;;;6.40;;
71490;SDS011;59307;50.060;9.150;2023-10-13T01:47:04;17.10;;;6.83;;
71490;SDS011;59307;50.060;9.150;2023-10-13T01:49:34;12.55;;;6.40;;
71490;SDS011;59307;50.060;9.150;2023-10-13T01:52:12;16.88;;;7.40;;
71490;SDS011;59307;50.060;9.150;2023-10-13T01:54:40;13.98;;;6.28;;
71490;SDS011;59307;50.060;9.150;2023-10-13T01:57:09;13.80;;;7.10;;
71490;SDS011;59307;50.060;9.150;2023-10-13T01:59:38;17.63;;;7.18;;
71490;SDS011;59307;50.060;9.150;2023-10-13T02:02:08;12.93;;;6.70;;
71490;SDS011;59307;50.060;9.150;2023-10-13T02:04:37;16.90;;;7.00;;
71490;SDS011;59307;50.060;9.150;2023-10-13T02:07:07;16.90;;;7.00;;
71490;SDS011;59307;50.060;9.150;2023-10-13T02:09:33;19.55;;;7.68;;
71490;SDS011;59307;50.060;9.150;2023-10-13T02:12:01;15.43;;;6.80;;
71490;SDS011;59307;50.060;9.150;2023-10-13T02:14:27;14.87;;;6.57;;
71490;SDS011;59307;50.060;9.150;2023-10-13T02:16:52;16.77;;;6.20;;
71490;SDS011;59307;50.060;9.150;2023-10-13T02:19:36;13.02;;;6.70;;
71490;SDS011;59307;50.060;9.150;2023-10-13T02:22:04;17.57;;;6.33;;
71490;SDS011;59307;50.060;9.150;2023-10-13T02:24:31;15.70;;;7.03;;
71490;SDS011;59307;50.060;9.150;2023-10-13T02:26:57;19.97;;;6.37;;
71490;SDS011;59307;50.060;9.150;2023-10-13T02:29:34;14.23;;;7.20;;
71490;SDS011;59307;50.060;9.150;2023-10-13T02:32:04;20.52;;;8.10;;
71490;SDS011;59307;50.060;9.150;2023-10-13T02:34:29;12.83;;;6.80;;
71490;SDS011;59307;50.060;9.150;2023-10-13T02:36:56;14.98;;;6.93;;
71490;SDS011;59307;50.060;9.150;2023-10-13T02:39:21;15.70;;;6.77;;
71490;SDS011;59307;50.060;9.150;2023-10-13T02:41:51;18.27;;;6.93;;
71490;SDS011;59307;50.060;9.150;2023-10-13T02:44:17;14.40;;;6.63;;
71490;SDS011;59307;50.060;9.150;2023-10-13T02:46:52;16.52;;;6.38;;
71490;SDS011;59307;50.060;9.150;2023-10-13T02:49:17;14.77;;;6.53;;
71490;SDS011;59307;50.060;9.150;2023-10-13T02:51:44;15.60;;;6.10;;
71490;SDS011;59307;50.060;9.150;2023-10-13T02:54:10;12.50;;;6.30;;
71490;SDS011;59307;50.060;9.150;2023-10-13T02:56:36;12.90;;;6.13;;
71490;SDS011;59307;50.060;9.150;2023-10-13T02:59:02;12.18;;;6.63;;
71490;SDS011;59307;50.060;9.150;2023-10-13T03:01:33;15.63;;;6.30;;
71490;SDS011;59307;50.060;9.150;2023-10-13T03:03:59;13.85;;;5.95;;
71490;SDS011;59307;50.060;9.150;2023-10-13T03:06:25;14.27;;;6.83;;
71490;SDS011;59307;50.060;9.150;2023-10-13T03:08:57;15.85;;;6.22;;
71490;SDS011;59307;50.060;9.150;2023-10-13T03:11:22;11.83;;;6.77;;
71490;SDS011;59307;50.060;9.150;2023-10-13T03:13:49;12.07;;;6.05;;
71490;SDS011;59307;50.060;9.150;2023-10-13T03:16:17;17.75;;;6.43;;
71490;SDS011;59307;50.060;9.150;2023-10-13T03:18:43;11.03;;;6.03;;
71490;SDS011;59307;50.060;9.150;2023-10-13T03:21:17;16.02;;;6.43;;
71490;SDS011;59307;50.060;9.150;2023-10-13T03:23:55;15.38;;;6.30;;
71490;SDS011;59307;50.060;9.150;2023-10-13T03:26:21;15.80;;;6.47;;
71490;SDS011;59307;50.060;9.150;2023-10-13T03:28:46;12.57;;;6.20;;
71490;SDS011;59307;50.060;9.150;2023-10-13T03:31:17;14.10;;;6.45;;
71490;SDS011;59307;50.060;9.150;2023-10-13T03:33:43;14.80;;;6.70;;
71490;SDS011;59307;50.060;9.150;2023-10-13T03:36:11;15.50;;;6.50;;
71490;SDS011;59307;50.060;9.150;2023-10-13T03:38:52;13.88;;;6.47;;
71490;SDS011;59307;50.060;9.150;2023-10-13T03:41:20;18.15;;;6.03;;
71490;SDS011;59307;50.060;9.150;2023-10-13T03:43:45;13.07;;;5.72;;
71490;SDS011;59307;50.060;9.150;2023-10-13T03:46:16;17.48;;;6.45;;
71490;SDS011;59307;50.060;9.150;2023-10-13T03:48:46;12.13;;;5.63;;
71490;SDS011;59307;50.060;9.150;2023-10-13T03:51:19;14.13;;;5.78;;
71490;SDS011;59307;50.060;9.150;2023-10-13T03:53:44;10.87;;;5.63;;
71490;SDS011;59307;50.060;9.150;2023-10-13T03:56:32;16.55;;;5.63;;
71490;SDS011;59307;50.060;9.150;2023-10-13T03:59:04;13.07;;;5.95;;
71490;SDS011;59307;50.060;9.150;2023-10-13T04:01:30;14.45;;;4.95;;
71490;SDS011;59307;50.060;9.150;2023-10-13T04:03:57;13.33;;;5.63;;
71490;SDS011;59307;50.060;9.150;2023-10-13T04:06:28;18.55;;;5.47;;
71490;SDS011;59307;50.060;9.150;2023-10-13T04:09:15;16.75;;;5.53;;
71490;SDS011;59307;50.060;9.150;2023-10-13T04:11:58;13.68;;;6.18;;
71490;SDS011;59307;50.060;9.150;2023-10-13T04:14:28;14.43;;;5.43;;
71490;SDS011;59307;50.060;9.150;2023-10-13T04:17:11;15.35;;;5.68;;
71490;SDS011;59307;50.060;9.150;2023-10-13T04:19:42;16.08;;;5.45;;
71490;SDS011;59307;50.060;9.150;2023-10-13T04:22:26;11.52;;;5.07;;
71490;SDS011;59307;50.060;9.150;2023-10-13T04:25:23;13.15;;;5.85;;
71490;SDS011;59307;50.060;9.150;2023-10-13T04:28:24;10.87;;;5.10;;
71490;SDS011;59307;50.060;9.150;2023-10-13T04:30:52;11.77;;;5.20;;
71490;SDS011;59307;50.060;9.150;2023-10-13T04:33:24;15.80;;;5.15;;
71490;SDS011;59307;50.060;9.150;2023-10-13T04:36:09;16.13;;;6.13;;
71490;SDS011;59307;50.060;9.150;2023-10-13T04:38:54;12.70;;;5.30;;
71490;SDS011;59307;50.060;9.150;2023-10-13T04:41:26;11.57;;;5.87;;
71490;SDS011;59307;50.060;9.150;2023-10-13T04:44:07;15.95;;;5.68;;
71490;SDS011;59307;50.060;9.150;2023-10-13T04:47:01;12.05;;;5.30;;
71490;SDS011;59307;50.060;9.150;2023-10-13T04:49:27;17.27;;;5.17;;
71490;SDS011;59307;50.060;9.150;2023-10-13T04:52:08;11.15;;;5.75;;
71490;SDS011;59307;50.060;9.150;2023-10-13T04:54:33;16.07;;;5.80;;
71490;SDS011;59307;50.060;9.150;2023-10-13T04:57:10;11.70;;;5.78;;
71490;SDS011;59307;50.060;9.150;2023-10-13T04:59:50;15.55;;;5.72;;
71490;SDS011;59307;50.060;9.150;2023-10-13T05:02:34;14.30;;;5.70;;
71490;SDS011;59307;50.060;9.150;2023-10-13T05:05:07;20.58;;;5.85;;
71490;SDS011;59307;50.060;9.150;2023-10-13T05:07:48;13.00;;;6.00;;
71490;SDS011;59307;50.060;9.150;2023-10-13T05:10:32;14.35;;;5.70;;
71490;SDS011;59307;50.060;9.150;2023-10-13T05:13:16;15.05;;;5.82;;
71490;SDS011;59307;50.060;9.150;2023-10-13T05:16:00;14.80;;;6.30;;
71490;SDS011;59307;50.060;9.150;2023-10-13T05:18:44;12.52;;;6.35;;
71490;SDS011;59307;50.060;9.150;2023-10-13T05:21:28;13.40;;;5.45;;
71490;SDS011;59307;50.060;9.150;2023-10-13T05:24:12;14.57;;;5.43;;
71490;SDS011;59307;50.060;9.150;2023-10-13T05:26:56;15.18;;;5.90;;
71490;SDS011;59307;50.060;9.150;2023-10-13T05:29:40;14.83;;;5.60;;
71490;SDS011;59307;50.060;9.150;2023-10-13T05:32:24;15.40;;;5.50;;
71490;SDS011;59307;50.060;9.150;2023-10-13T05:35:08;16.73;;;6.00;;
71490;SDS011;59307;50.060;9.150;2023-10-13T05:37:52;13.65;;;5.40;;
71490;SDS011;59307;50.060;9.150;2023-10-13T05:40:36;14.35;;;5.43;;
71490;SDS011;59307;50.060;9.150;2023-10-13T05:43:20;15.03;;;5.90;;
71490;SDS011;59307;50.060;9.150;2023-10-13T05:46:05;12.38;;;4.90;;
71490;SDS011;59307;50.060;9.150;2023-10-13T05:49:01;14.95;;;5.60;;
71490;SDS011;59307;50.060;9.150;2023-10-13T05:51:27;12.35;;;5.70;;
71490;SDS011;59307;50.060;9.150;2023-10-13T05:54:12;16.50;;;5.70;;
71490;SDS011;59307;50.060;9.150;2023-10-13T05:56:49;12.40;;;5.27;;
71490;SDS011;59307;50.060;9.150;2023-10-13T05:59:34;17.33;;;5.50;;
71490;SDS011;59307;50.060;9.150;2023-10-13T06:02:19;15.40;;;5.32;;
71490;SDS011;59307;50.060;9.150;2023-10-13T06:05:12;12.32;;;6.13;;
71490;SDS011;59307;50.060;9.150;2023-10-13T06:07:56;16.20;;;5.75;;
71490;SDS011;59307;50.060;9.150;2023-10-13T06:10:40;13.47;;;5.00;;
71490;SDS011;59307;50.060;9.150;2023-10-13T06:13:24;17.13;;;5.18;;
71490;SDS011;59307;50.060;9.150;2023-10-13T06:16:08;12.77;;;5.20;;
71490;SDS011;59307;50.060;9.150;2023-10-13T06:18:52;13.75;;;5.97;;
71490;SDS011;59307;50.060;9.150;2023-10-13T06:21:36;16.92;;;5.53;;
71490;SDS011;59307;50.060;9.150;2023-10-13T06:24:20;14.77;;;5.73;;
71490;SDS011;59307;50.060;9.150;2023-10-13T06:27:05;12.98;;;5.70;;
71490;SDS011;59307;50.060;9.150;2023-10-13T06:29:48;17.75;;;5.82;;
71490;SDS011;59307;50.060;9.150;2023-10-13T06:32:14;15.07;;;5.30;;
71490;SDS011;59307;50.060;9.150;2023-10-13T06:34:41;17.85;;;5.40;;
71490;SDS011;59307;50.060;9.150;2023-10-13T06:37:15;12.43;;;5.00;;
71490;SDS011;59307;50.060;9.150;2023-10-13T06:40:10;14.67;;;5.10;;
71490;SDS011;59307;50.060;9.150;2023-10-13T06:42:51;14.88;;;5.75;;
71490;SDS011;59307;50.060;9.150;2023-10-13T06:45:18;14.48;;;5.30;;
71490;SDS011;59307;50.060;9.150;2023-10-13T06:47:43;13.60;;;5.40;;
71490;SDS011;59307;50.060;9.150;2023-10-13T06:50:09;12.67;;;5.50;;
71490;SDS011;59307;50.060;9.150;2023-10-13T06:52:41;13.57;;;5.07;;
71490;SDS011;59307;50.060;9.150;2023-10-13T06:55:07;13.38;;;4.63;;
71490;SDS011;59307;50.060;9.150;2023-10-13T06:57:33;12.90;;;4.72;;
71490;SDS011;59307;50.060;9.150;2023-10-13T07:00:02;16.70;;;5.70;;
71490;SDS011;59307;50.060;9.150;2023-10-13T07:02:32;12.77;;;4.40;;
71490;SDS011;59307;50.060;9.150;2023-10-13T07:04:58;13.70;;;4.97;;
71490;SDS011;59307;50.060;9.150;2023-10-13T07:07:32;15.48;;;5.03;;
71490;SDS011;59307;50.060;9.150;2023-10-13T07:09:58;12.27;;;4.83;;
71490;SDS011;59307;50.060;9.150;2023-10-13T07:12:23;12.60;;;4.47;;
71490;SDS011;59307;50.060;9.150;2023-10-13T07:14:51;13.23;;;4.82;;
71490;SDS011;59307;50.060;9.150;2023-10-13T07:17:17;12.10;;;4.23;;
71490;SDS011;59307;50.060;9.150;2023-10-13T07:19:48;11.13;;;4.10;;
71490;SDS011;59307;50.060;9.150;2023-10-13T07:22:18;13.82;;;4.35;;
71490;SDS011;59307;50.060;9.150;2023-10-13T07:24:47;11.32;;;4.13;;
71490;SDS011;59307;50.060;9.150;2023-10-13T07:29:47;17.02;;;4.40;;
71490;SDS011;59307;50.060;9.150;2023-10-13T07:32:19;11.60;;;4.13;;
71490;SDS011;59307;50.060;9.150;2023-10-13T07:34:49;13.70;;;4.00;;
71490;SDS011;59307;50.060;9.150;2023-10-13T07:37:14;9.63;;;3.40;;
71490;SDS011;59307;50.060;9.150;2023-10-13T07:39:41;12.30;;;4.25;;
71490;SDS011;59307;50.060;9.150;2023-10-13T07:42:07;13.73;;;4.07;;
71490;SDS011;59307;50.060;9.150;2023-10-13T07:44:40;13.05;;;3.92;;
71490;SDS011;59307;50.060;9.150;2023-10-13T07:47:11;13.37;;;3.63;;
71490;SDS011;59307;50.060;9.150;2023-10-13T07:49:37;13.07;;;4.68;;
71490;SDS011;59307;50.060;9.150;2023-10-13T07:52:05;11.32;;;4.40;;
71490;SDS011;59307;50.060;9.150;2023-10-13T07:54:49;15.15;;;3.95;;
71490;SDS011;59307;50.060;9.150;2023-10-13T07:57:24;9.80;;;3.65;;
71490;SDS011;59307;50.060;9.150;2023-10-13T07:59:54;11.97;;;4.37;;
71490;SDS011;59307;50.060;9.150;2023-10-13T08:02:31;12.40;;;4.10;;
71490;SDS011;59307;50.060;9.150;2023-10-13T08:05:16;9.60;;;4.22;;
71490;SDS011;59307;50.060;9.150;2023-10-13T08:08:04;13.93;;;4.72;;
71490;SDS011;59307;50.060;9.150;2023-10-13T08:10:35;10.17;;;4.10;;
71490;SDS011;59307;50.060;9.150;2023-10-13T08:13:00;15.25;;;4.47;;
71490;SDS011;59307;50.060;9.150;2023-10-13T08:15:26;13.03;;;4.30;;
71490;SDS011;59307;50.060;9.150;2023-10-13T08:17:58;15.00;;;4.53;;
71490;SDS011;59307;50.060;9.150;2023-10-13T08:20:24;12.17;;;3.80;;
71490;SDS011;59307;50.060;9.150;2023-10-13T08:22:51;13.25;;;4.15;;
71490;SDS011;59307;50.060;9.150;2023-10-13T08:25:37;10.38;;;4.00;;
71490;SDS011;59307;50.060;9.150;2023-10-13T08:28:21;10.40;;;4.00;;
71490;SDS011;59307;50.060;9.150;2023-10-13T08:31:07;12.38;;;4.45;;
71490;SDS011;59307;50.060;9.150;2023-10-13T08:33:47;12.40;;;4.13;;
71490;SDS011;59307;50.060;9.150;2023-10-13T08:36:12;11.53;;;3.67;;
71490;SDS011;59307;50.060;9.150;2023-10-13T08:38:52;12.20;;;3.97;;
71490;SDS011;59307;50.060;9.150;2023-10-13T08:41:20;11.43;;;4.32;;
71490;SDS011;59307;50.060;9.150;2023-10-13T08:43:45;12.93;;;4.13;;
71490;SDS011;59307;50.060;9.150;2023-10-13T08:46:15;14.77;;;4.50;;
71490;SDS011;59307;50.060;9.150;2023-10-13T08:48:52;9.95;;;4.45;;
71490;SDS011;59307;50.060;9.150;2023-10-13T08:51:17;14.70;;;4.17;;
71490;SDS011;59307;50.060;9.150;2023-10-13T08:54:04;12.30;;;4.10;;
71490;SDS011;59307;50.060;9.150;2023-10-13T08:56:43;12.68;;;3.80;;
71490;SDS011;59307;50.060;9.150;2023-10-13T08:59:12;12.15;;;4.68;;
71490;SDS011;59307;50.060;9.150;2023-10-13T09:01:47;8.73;;;4.00;;
71490;SDS011;59307;50.060;9.150;2023-10-13T09:04:25;14.17;;;4.40;;
71490;SDS011;59307;50.060;9.150;2023-10-13T09:07:00;14.75;;;4.22;;
71490;SDS011;59307;50.060;9.150;2023-10-13T09:09:29;11.52;;;4.18;;
71490;SDS011;59307;50.060;9.150;2023-10-13T09:12:01;9.52;;;4.13;;
71490;SDS011;59307;50.060;9.150;2023-10-13T09:14:36;9.02;;;4.53;;
71490;SDS011;59307;50.060;9.150;2023-10-13T09:17:07;11.77;;;4.60;;
71490;SDS011;59307;50.060;9.150;2023-10-13T09:19:42;8.55;;;3.92;;
71490;SDS011;59307;50.060;9.150;2023-10-13T09:22:16;13.13;;;3.90;;
71490;SDS011;59307;50.060;9.150;2023-10-13T09:24:50;9.88;;;4.00;;
71490;SDS011;59307;50.060;9.150;2023-10-13T09:27:17;11.52;;;4.22;;
71490;SDS011;59307;50.060;9.150;2023-10-13T09:29:42;9.53;;;4.37;;
71490;SDS011;59307;50.060;9.150;2023-10-13T09:32:11;13.07;;;4.30;;
71490;SDS011;59307;50.060;9.150;2023-10-13T09:34:37;12.07;;;4.43;;
71490;SDS011;59307;50.060;9.150;2023-10-13T09:37:05;12.67;;;3.83;;
71490;SDS011;59307;50.060;9.150;2023-10-13T09:39:32;10.43;;;4.18;;
71490;SDS011;59307;50.060;9.150;2023-10-13T09:42:09;8.50;;;3.88;;
71490;SDS011;59307;50.060;9.150;2023-10-13T09:44:35;9.68;;;4.55;;
71490;SDS011;59307;50.060;9.150;2023-10-13T09:47:02;12.57;;;3.83;;
71490;SDS011;59307;50.060;9.150;2023-10-13T09:49:41;10.13;;;3.97;;
71490;SDS011;59307;50.060;9.150;2023-10-13T09:52:14;10.55;;;4.15;;
71490;SDS011;59307;50.060;9.150;2023-10-13T09:54:44;8.85;;;4.18;;
71490;SDS011;59307;50.060;9.150;2023-10-13T09:57:17;10.15;;;3.90;;
71490;SDS011;59307;50.060;9.150;2023-10-13T09:59:54;7.67;;;3.80;;
71490;SDS011;59307;50.060;9.150;2023-10-13T10:02:21;10.52;;;3.83;;
71490;SDS011;59307;50.060;9.150;2023-10-13T10:04:53;10.32;;;4.05;;
71490;SDS011;59307;50.060;9.150;2023-10-13T10:07:24;14.52;;;4.10;;
71490;SDS011;59307;50.060;9.150;2023-10-13T10:10:01;10.25;;;4.25;;
71490;SDS011;59307;50.060;9.150;2023-10-13T10:17:23;7.67;;;4.13;;
71490;SDS011;59307;50.060;9.150;2023-10-13T10:19:54;7.15;;;3.67;;
71490;SDS011;59307;50.060;9.150;2023-10-13T10:22:28;10.48;;;4.00;;
71490;SDS011;59307;50.060;9.150;2023-10-13T10:24:58;14.15;;;4.43;;
71490;SDS011;59307;50.060;9.150;2023-10-13T10:27:27;9.10;;;3.90;;
71490;SDS011;59307;50.060;9.150;2023-10-13T10:29:54;8.98;;;3.90;;
71490;SDS011;59307;50.060;9.150;2023-10-13T10:32:19;13.07;;;4.47;;
71490;SDS011;59307;50.060;9.150;2023-10-13T10:34:44;10.43;;;4.37;;
71490;SDS011;59307;50.060;9.150;2023-10-13T10:37:10;9.23;;;4.00;;
71490;SDS011;59307;50.060;9.150;2023-10-13T10:39:37;9.13;;;4.10;;
71490;SDS011;59307;50.060;9.150;2023-10-13T10:42:10;11.77;;;4.03;;
71490;SDS011;59307;50.060;9.150;2023-10-13T10:44:49;10.05;;;4.10;;
71490;SDS011;59307;50.060;9.150;2023-10-13T10:47:20;8.68;;;4.03;;
71490;SDS011;59307;50.060;9.150;2023-10-13T10:50:01;10.07;;;4.03;;
71490;SDS011;59307;50.060;9.150;2023-10-13T10:52:32;10.65;;;4.05;;
71490;SDS011;59307;50.060;9.150;2023-10-13T10:55:02;9.43;;;4.05;;
71490;SDS011;59307;50.060;9.150;2023-10-13T10:57:31;10.98;;;3.75;;
71490;SDS011;59307;50.060;9.150;2023-10-13T11:00:02;7.35;;;3.53;;
71490;SDS011;59307;50.060;9.150;2023-10-13T11:02:37;8.00;;;3.87;;
71490;SDS011;59307;50.060;9.150;2023-10-13T11:05:02;9.23;;;4.32;;
71490;SDS011;59307;50.060;9.150;2023-10-13T11:07:30;10.38;;;4.05;;
71490;SDS011;59307;50.060;9.150;2023-10-13T11:09:56;9.23;;;4.13;;
71490;SDS011;59307;50.060;9.150;2023-10-13T11:12:32;10.05;;;3.78;;
71490;SDS011;59307;50.060;9.150;2023-10-13T11:15:08;8.73;;;4.00;;
71490;SDS011;59307;50.060;9.150;2023-10-13T11:17:50;9.45;;;3.78;;
71490;SDS011;59307;50.060;9.150;2023-10-13T11:20:23;10.47;;;4.10;;
71490;SDS011;59307;50.060;9.150;2023-10-13T11:22:58;13.40;;;4.03;;
71490;SDS011;59307;50.060;9.150;2023-10-13T11:25:25;9.60;;;4.15;;
71490;SDS011;59307;50.060;9.150;2023-10-13T11:28:09;8.43;;;3.85;;
71490;SDS011;59307;50.060;9.150;2023-10-13T11:30:34;10.50;;;4.22;;
71490;SDS011;59307;50.060;9.150;2023-10-13T11:33:03;11.57;;;3.70;;
71490;SDS011;59307;50.060;9.150;2023-10-13T11:35:31;11.40;;;3.95;;
71490;SDS011;59307;50.060;9.150;2023-10-13T11:38:14;7.22;;;3.72;;
71490;SDS011;59307;50.060;9.150;2023-10-13T11:40:40;9.07;;;4.00;;
71490;SDS011;59307;50.060;9.150;2023-10-13T11:43:08;9.25;;;4.13;;
71490;SDS011;59307;50.060;9.150;2023-10-13T11:45:40;11.67;;;4.13;;
71490;SDS011;59307;50.060;9.150;2023-10-13T11:48:20;12.63;;;3.88;;
71490;SDS011;59307;50.060;9.150;2023-10-13T11:50:59;9.38;;;4.00;;
71490;SDS011;59307;50.060;9.150;2023-10-13T11:53:25;12.97;;;4.23;;
71490;SDS011;59307;50.060;9.150;2023-10-13T11:55:52;9.57;;;3.88;;
71490;SDS011;59307;50.060;9.150;2023-10-13T11:58:17;9.80;;;3.83;;
71490;SDS011;59307;50.060;9.150;2023-10-13T12:00:43;9.87;;;4.60;;
71490;SDS011;59307;50.060;9.150;2023-10-13T12:03:41;10.63;;;4.53;;
71490;SDS011;59307;50.060;9.150;2023-10-13T12:06:25;10.02;;;4.13;;
71490;SDS011;59307;50.060;9.150;2023-10-13T12:08:59;8.75;;;4.25;;
71490;SDS011;59307;50.060;9.150;2023-10-13T12:11:46;7.73;;;3.97;;
71490;SDS011;59307;50.060;9.150;2023-10-13T12:14:11;10.52;;;4.18;;
71490;SDS011;59307;50.060;9.150;2023-10-13T12:16:42;8.35;;;4.25;;
71490;SDS011;59307;50.060;9.150;2023-10-13T12:19:07;8.60;;;3.97;;
71490;SDS011;59307;50.060;9.150;2023-10-13T12:21:36;8.07;;;3.90;;
71490;SDS011;59307;50.060;9.150;2023-10-13T12:24:02;8.00;;;3.70;;
71490;SDS011;59307;50.060;9.150;2023-10-13T12:26:28;9.50;;;3.77;;
71490;SDS011;59307;50.060;9.150;2023-10-13T12:28:58;11.02;;;4.15;;
71490;SDS011;59307;50.060;9.150;2023-10-13T12:31:31;9.45;;;3.95;;
71490;SDS011;59307;50.060;9.150;2023-10-13T12:33:57;11.27;;;4.03;;
71490;SDS011;59307;50.060;9.150;2023-10-13T12:36:31;8.67;;;3.80;;
71490;SDS011;59307;50.060;9.150;2023-10-13T12:39:05;11.63;;;3.70;;
71490;SDS011;59307;50.060;9.150;2023-10-13T12:41:33;11.95;;;4.10;;
71490;SDS011;59307;50.060;9.150;2023-10-13T12:44:17;9.93;;;3.92;;
71490;SDS011;59307;50.060;9.150;2023-10-13T12:47:01;10.30;;;3.80;;
71490;SDS011;59307;50.060;9.150;2023-10-13T12:49:45;11.93;;;3.50;;
71490;SDS011;59307;50.060;9.150;2023-10-13T12:52:10;9.77;;;3.90;;
71490;SDS011;59307;50.060;9.150;2023-10-13T12:54:46;8.90;;;3.90;;
71490;SDS011;59307;50.060;9.150;2023-10-13T12:57:15;11.25;;;4.03;;
71490;SDS011;59307;50.060;9.150;2023-10-13T12:59:41;9.60;;;3.88;;
71490;SDS011;59307;50.060;9.150;2023-10-13T13:02:06;11.60;;;4.33;;
71490;SDS011;59307;50.060;9.150;2023-10-13T13:04:32;8.68;;;4.03;;
71490;SDS011;59307;50.060;9.150;2023-10-13T13:07:01;10.48;;;3.90;;
71490;SDS011;59307;50.060;9.150;2023-10-13T13:09:28;9.80;;;3.90;;
71490;SDS011;59307;50.060;9.150;2023-10-13T13:11:53;12.57;;;4.00;;
71490;SDS011;59307;50.060;9.150;2023-10-13T13:14:22;8.88;;;3.88;;
71490;SDS011;59307;50.060;9.150;2023-10-13T13:16:53;11.80;;;3.85;;
71490;SDS011;59307;50.060;9.150;2023-10-13T13:19:18;9.47;;;4.13;;
71490;SDS011;59307;50.060;9.150;2023-10-13T13:21:50;11.93;;;3.95;;
71490;SDS011;59307;50.060;9.150;2023-10-13T13:24:16;7.63;;;3.73;;
71490;SDS011;59307;50.060;9.150;2023-10-13T13:26:41;9.70;;;3.77;;
71490;SDS011;59307;50.060;9.150;2023-10-13T13:29:06;7.57;;;3.70;;
71490;SDS011;59307;50.060;9.150;2023-10-13T13:31:34;9.25;;;3.70;;
71490;SDS011;59307;50.060;9.150;2023-10-13T13:34:05;9.33;;;3.40;;
71490;SDS011;59307;50.060;9.150;2023-10-13T13:36:31;9.20;;;3.88;;
71490;SDS011;59307;50.060;9.150;2023-10-13T13:38:57;11.17;;;3.83;;
71490;SDS011;59307;50.060;9.150;2023-10-13T13:41:25;10.25;;;3.45;;
71490;SDS011;59307;50.060;9.150;2023-10-13T13:43:50;9.67;;;3.40;;
71490;SDS011;59307;50.060;9.150;2023-10-13T13:46:25;10.07;;;3.77;;
71490;SDS011;59307;50.060;9.150;2023-10-13T13:48:52;9.38;;;3.83;;
71490;SDS011;59307;50.060;9.150;2023-10-13T13:51:23;11.70;;;4.07;;
71490;SDS011;59307;50.060;9.150;2023-10-13T13:53:53;10.18;;;3.63;;
71490;SDS011;59307;50.060;9.150;2023-10-13T13:56:19;9.07;;;3.72;;
71490;SDS011;59307;50.060;9.150;2023-10-13T13:58:50;8.00;;;3.60;;
71490;SDS011;59307;50.060;9.150;2023-10-13T14:01:16;9.35;;;3.75;;
71490;SDS011;59307;50.060;9.150;2023-10-13T14:03:43;11.33;;;3.50;;
71490;SDS011;59307;50.060;9.150;2023-10-13T14:06:12;8.80;;;3.47;;
71490;SDS011;59307;50.060;9.150;2023-10-13T14:08:58;10.45;;;3.67;;
71490;SDS011;59307;50.060;9.150;2023-10-13T14:12:00;9.80;;;3.60;;
71490;SDS011;59307;50.060;9.150;2023-10-13T14:14:44;11.98;;;3.47;;
71490;SDS011;59307;50.060;9.150;2023-10-13T14:17:20;9.57;;;3.67;;
71490;SDS011;59307;50.060;9.150;2023-10-13T14:19:45;8.33;;;3.70;;
71490;SDS011;59307;50.060;9.150;2023-10-13T14:22:10;10.47;;;3.70;;
71490;SDS011;59307;50.060;9.150;2023-10-13T14:24:37;9.77;;;3.60;;
71490;SDS011;59307;50.060;9.150;2023-10-13T14:27:08;7.82;;;3.67;;
71490;SDS011;59307;50.060;9.150;2023-10-13T14:29:36;8.35;;;3.72;;
71490;SDS011;59307;50.060;9.150;2023-10-13T14:32:08;6.20;;;3.60;;
71490;SDS011;59307;50.060;9.150;2023-10-13T14:34:37;15.03;;;3.73;;
71490;SDS011;59307;50.060;9.150;2023-10-13T14:37:02;8.77;;;3.65;;
71490;SDS011;59307;50.060;9.150;2023-10-13T14:39:29;9.13;;;3.37;;
71490;SDS011;59307;50.060;9.150;2023-10-13T14:41:55;10.60;;;3.72;;
71490;SDS011;59307;50.060;9.150;2023-10-13T14:44:20;6.97;;;3.70;;
71490;SDS011;59307;50.060;9.150;2023-10-13T14:46:50;14.70;;;3.70;;
71490;SDS011;59307;50.060;9.150;2023-10-13T14:49:19;9.13;;;3.70;;
71490;SDS011;59307;50.060;9.150;2023-10-13T14:51:44;8.83;;;3.70;;
71490;SDS011;59307;50.060;9.150;2023-10-13T14:54:10;10.57;;;3.67;;
71490;SDS011;59307;50.060;9.150;2023-10-13T14:56:35;10.07;;;3.77;;
71490;SDS011;59307;50.060;9.150;2023-10-13T14:59:00;10.53;;;3.73;;
71490;SDS011;59307;50.060;9.150;2023-10-13T15:01:26;7.00;;;3.40;;
71490;SDS011;59307;50.060;9.150;2023-10-13T15:03:51;7.35;;;3.35;;
71490;SDS011;59307;50.060;9.150;2023-10-13T15:06:26;9.00;;;3.78;;
71490;SDS011;59307;50.060;9.150;2023-10-13T15:08:58;12.53;;;3.30;;
71490;SDS011;59307;50.060;9.150;2023-10-13T15:11:24;7.80;;;3.83;;
71490;SDS011;59307;50.060;9.150;2023-10-13T15:13:55;10.43;;;3.83;;
71490;SDS011;59307;50.060;9.150;2023-10-13T15:16:22;8.55;;;3.40;;